Time;durP1;ratioP1;P1;durP2;ratioP2;P2;SDS_P1;SDS_P2;PMS_P1;PMS_P2;Temp;Humidity;BMP_temperature;BMP_pressure;BME280_temperature;BME280_humidity;BME280_pressure;Samples;Min_cycle;Max_cycle;Signal;HPM_P1;HPM_P2
2022/06/15 00:01:29;;;;;;;3.95;2.30;;;;;;;;;;5038796;28;20029;-56
2022/06/15 00:03:56;;;;;;;3.95;1.85;;;;;;;;;;5042144;28;20017;-55
2022/06/15 00:06:24;;;;;;;4.35;1.70;;;;;;;;;;5041563;28;20036;-55
2022/06/15 00:08:54;;;;;;;2.20;1.50;;;;;;;;;;5036440;28;20084;-55
2022/06/15 00:11:20;;;;;;;2.20;1.65;;;;;;;;;;5039830;28;20054;-54
2022/06/15 00:13:46;;;;;;;3.65;2.00;;;;;;;;;;5041912;28;20025;-54
2022/06/15 00:16:14;;;;;;;5.10;2.00;;;;;;;;;;5044822;28;20090;-55
2022/06/15 00:18:40;;;;;;;3.63;2.05;;;;;;;;;;5043589;28;20048;-56
2022/06/15 00:21:06;;;;;;;3.63;2.58;;;;;;;;;;5040946;28;20028;-55
2022/06/15 00:23:33;;;;;;;4.15;2.47;;;;;;;;;;5043849;28;20478;-56
2022/06/15 00:25:59;;;;;;;2.65;1.58;;;;;;;;;;5037229;28;20036;-56
2022/06/15 00:28:26;;;;;;;2.65;1.55;;;;;;;;;;5044356;28;20394;-55
2022/06/15 00:30:52;;;;;;;3.08;1.85;;;;;;;;;;5039769;28;20029;-55
2022/06/15 00:33:19;;;;;;;3.00;1.90;;;;;;;;;;5041036;28;20458;-56
2022/06/15 00:35:57;;;;;;;5.65;2.22;;;;;;;;;;5045225;28;20082;-55
2022/06/15 00:38:23;;;;;;;3.25;1.60;;;;;;;;;;5045958;28;20060;-55
2022/06/15 00:40:49;;;;;;;2.90;1.70;;;;;;;;;;5039034;28;20112;-55
2022/06/15 00:43:28;;;;;;;2.83;2.00;;;;;;;;;;5040190;28;20033;-56
2022/06/15 00:45:54;;;;;;;2.75;1.60;;;;;;;;;;5044766;28;20604;-56
2022/06/15 00:48:20;;;;;;;3.78;1.88;;;;;;;;;;5044675;28;20025;-56
2022/06/15 00:50:46;;;;;;;3.40;2.60;;;;;;;;;;5040113;28;20029;-55
2022/06/15 00:53:12;;;;;;;3.88;1.70;;;;;;;;;;5049868;28;20467;-55
2022/06/15 00:55:38;;;;;;;3.42;1.98;;;;;;;;;;5045447;28;20046;-55
2022/06/15 00:58:07;;;;;;;3.20;1.95;;;;;;;;;;5043432;28;20454;-56
2022/06/15 01:00:33;;;;;;;3.50;1.92;;;;;;;;;;5046032;28;20113;-56
2022/06/15 01:03:00;;;;;;;2.53;1.73;;;;;;;;;;5039122;28;20811;-55
2022/06/15 01:05:31;;;;;;;2.05;1.85;;;;;;;;;;5043973;28;20121;-55
2022/06/15 01:07:57;;;;;;;4.05;1.70;;;;;;;;;;5045212;28;20377;-56
2022/06/15 01:10:29;;;;;;;2.60;1.70;;;;;;;;;;5048117;28;20033;-55
2022/06/15 01:13:10;;;;;;;4.10;2.10;;;;;;;;;;5038665;28;20155;-55
2022/06/15 01:15:40;;;;;;;3.67;1.77;;;;;;;;;;5043220;28;20025;-53
2022/06/15 01:18:06;;;;;;;1.80;1.60;;;;;;;;;;5044009;28;20032;-55
2022/06/15 01:20:32;;;;;;;2.10;1.55;;;;;;;;;;5045613;28;20112;-53
2022/06/15 01:23:26;;;;;;;3.97;1.77;;;;;;;;;;5039480;28;20942;-55
2022/06/15 01:25:55;;;;;;;2.85;1.80;;;;;;;;;;5033681;28;20183;-54
2022/06/15 01:28:21;;;;;;;2.45;1.60;;;;;;;;;;5043329;28;20493;-55
2022/06/15 01:30:50;;;;;;;3.42;1.70;;;;;;;;;;5039011;28;20441;-54
2022/06/15 01:33:19;;;;;;;2.22;1.55;;;;;;;;;;5040325;28;20033;-54
2022/06/15 01:35:56;;;;;;;2.58;1.98;;;;;;;;;;5044888;28;20020;-55
2022/06/15 01:38:42;;;;;;;2.25;1.45;;;;;;;;;;5043568;28;20242;-52
2022/06/15 01:41:19;;;;;;;5.93;2.30;;;;;;;;;;5035351;28;20076;-56
2022/06/15 01:43:55;;;;;;;2.47;1.77;;;;;;;;;;5043690;28;20029;-55
2022/06/15 01:46:22;;;;;;;2.53;1.52;;;;;;;;;;5043225;28;20043;-54
2022/06/15 01:48:50;;;;;;;3.10;1.85;;;;;;;;;;5038611;28;20140;-55
2022/06/15 01:51:18;;;;;;;3.05;1.90;;;;;;;;;;5039535;28;20056;-55
2022/06/15 01:53:46;;;;;;;2.63;1.50;;;;;;;;;;5044111;28;20025;-55
2022/06/15 01:56:18;;;;;;;2.10;1.80;;;;;;;;;;5043233;28;20013;-54
2022/06/15 01:58:46;;;;;;;3.67;1.60;;;;;;;;;;5040202;28;20025;-54
2022/06/15 02:01:12;;;;;;;2.92;1.60;;;;;;;;;;5039383;28;20122;-55
2022/06/15 02:03:59;;;;;;;3.33;2.05;;;;;;;;;;5040897;28;20029;-55
2022/06/15 02:06:33;;;;;;;3.58;2.17;;;;;;;;;;5042898;28;20055;-54
2022/06/15 02:09:08;;;;;;;2.55;1.60;;;;;;;;;;5037553;28;21308;-54
2022/06/15 02:11:37;;;;;;;3.50;1.63;;;;;;;;;;5042595;28;20037;-54
2022/06/15 02:14:17;;;;;;;2.03;1.50;;;;;;;;;;5042098;28;20071;-55
2022/06/15 02:16:46;;;;;;;3.13;2.00;;;;;;;;;;5036147;28;20029;-55
2022/06/15 02:19:14;;;;;;;1.85;1.63;;;;;;;;;;5041320;28;20029;-55
2022/06/15 02:21:41;;;;;;;2.90;1.50;;;;;;;;;;5042232;28;20053;-55
2022/06/15 02:24:09;;;;;;;3.83;2.03;;;;;;;;;;5037575;28;20498;-54
2022/06/15 02:26:37;;;;;;;3.58;1.67;;;;;;;;;;5038133;28;22273;-55
2022/06/15 02:29:05;;;;;;;1.70;1.60;;;;;;;;;;5041262;28;20051;-56
2022/06/15 02:31:31;;;;;;;2.63;1.50;;;;;;;;;;5041882;28;20060;-54
2022/06/15 02:33:59;;;;;;;2.05;1.85;;;;;;;;;;5043505;28;20070;-54
2022/06/15 02:36:25;;;;;;;2.80;1.85;;;;;;;;;;5043661;28;20041;-54
2022/06/15 02:38:52;;;;;;;3.28;1.90;;;;;;;;;;5037494;28;20055;-55
2022/06/15 02:41:22;;;;;;;3.08;2.17;;;;;;;;;;5039012;28;20037;-57
2022/06/15 02:43:49;;;;;;;2.85;1.95;;;;;;;;;;5033412;28;20021;-55
2022/06/15 02:46:16;;;;;;;3.85;2.00;;;;;;;;;;5042490;28;20048;-55
2022/06/15 02:48:43;;;;;;;3.95;2.00;;;;;;;;;;5038552;28;20117;-55
2022/06/15 02:51:18;;;;;;;2.03;1.75;;;;;;;;;;5040745;28;20034;-54
2022/06/15 02:53:45;;;;;;;2.38;1.95;;;;;;;;;;5042637;28;20488;-55
2022/06/15 02:56:13;;;;;;;4.22;2.42;;;;;;;;;;5042143;28;20489;-55
2022/06/15 02:58:44;;;;;;;2.88;1.83;;;;;;;;;;5043315;28;20609;-55
2022/06/15 03:01:10;;;;;;;2.60;1.60;;;;;;;;;;5043220;28;20040;-56
2022/06/15 03:03:37;;;;;;;3.03;1.80;;;;;;;;;;5041082;28;20094;-56
2022/06/15 03:06:07;;;;;;;1.73;1.50;;;;;;;;;;5041714;28;20017;-56
2022/06/15 03:08:33;;;;;;;5.18;1.48;;;;;;;;;;5042755;28;20032;-56
2022/06/15 03:10:59;;;;;;;2.50;1.60;;;;;;;;;;5038158;28;20748;-56
2022/06/15 03:13:27;;;;;;;4.88;2.33;;;;;;;;;;5038492;28;20100;-55
2022/06/15 03:15:56;;;;;;;2.35;1.60;;;;;;;;;;5042647;28;20059;-54
2022/06/15 03:18:22;;;;;;;2.95;1.60;;;;;;;;;;5042527;28;20061;-53
2022/06/15 03:20:48;;;;;;;3.42;1.70;;;;;;;;;;5037412;28;20068;-56
2022/06/15 03:23:14;;;;;;;2.58;1.40;;;;;;;;;;5038802;28;20079;-56
2022/06/15 03:25:52;;;;;;;3.53;1.80;;;;;;;;;;5035508;28;20110;-55
2022/06/15 03:28:18;;;;;;;2.25;1.60;;;;;;;;;;5041523;28;20028;-57
2022/06/15 03:30:44;;;;;;;2.17;1.50;;;;;;;;;;5038304;28;20517;-57
2022/06/15 03:33:10;;;;;;;2.25;1.70;;;;;;;;;;5039537;28;20032;-57
2022/06/15 03:35:36;;;;;;;2.30;1.48;;;;;;;;;;5039881;28;20036;-56
2022/06/15 03:38:03;;;;;;;4.63;1.77;;;;;;;;;;5042526;28;20028;-56
2022/06/15 03:40:30;;;;;;;1.95;1.33;;;;;;;;;;5042000;28;20047;-56
2022/06/15 03:42:56;;;;;;;4.05;2.10;;;;;;;;;;5036569;28;20032;-56
2022/06/15 03:45:22;;;;;;;3.28;1.60;;;;;;;;;;5037406;28;20077;-56
2022/06/15 03:47:49;;;;;;;2.88;2.00;;;;;;;;;;5042120;28;20555;-56
2022/06/15 03:50:15;;;;;;;2.03;1.58;;;;;;;;;;5041191;28;20039;-56
2022/06/15 03:52:41;;;;;;;1.77;1.30;;;;;;;;;;5038474;28;20033;-55
2022/06/15 03:55:07;;;;;;;2.08;1.67;;;;;;;;;;5039155;28;20056;-55
2022/06/15 03:57:33;;;;;;;3.10;1.60;;;;;;;;;;5039121;28;20079;-54
2022/06/15 03:59:59;;;;;;;1.77;1.50;;;;;;;;;;5041776;28;20428;-56
2022/06/15 04:02:25;;;;;;;3.13;1.65;;;;;;;;;;5041119;28;20099;-54
2022/06/15 04:04:51;;;;;;;2.10;1.50;;;;;;;;;;5036414;28;20025;-53
2022/06/15 04:10:02;;;;;;;2.95;1.70;;;;;;;;;;5033743;28;20110;-56
2022/06/15 04:12:28;;;;;;;2.08;1.60;;;;;;;;;;5041301;28;20067;-54
2022/06/15 04:14:54;;;;;;;2.08;1.50;;;;;;;;;;5036063;28;20056;-55
2022/06/15 04:17:19;;;;;;;2.80;1.40;;;;;;;;;;5037325;28;20044;-54
2022/06/15 04:20:31;;;;;;;2.13;1.92;;;;;;;;;;5038323;28;20425;-54
2022/06/15 04:22:31;;;;;;;1.50;1.40;;;;;;;;;;5037717;28;20029;-55
2022/06/15 04:24:57;;;;;;;2.45;1.50;;;;;;;;;;5030522;28;20098;-55
2022/06/15 04:27:23;;;;;;;2.30;1.88;;;;;;;;;;5036704;28;20029;-53
2022/06/15 04:29:49;;;;;;;2.67;1.83;;;;;;;;;;5041014;28;20478;-53
2022/06/15 04:32:15;;;;;;;4.93;2.10;;;;;;;;;;5041086;28;20029;-56
2022/06/15 04:34:41;;;;;;;1.85;1.60;;;;;;;;;;5038105;28;20056;-55
2022/06/15 04:37:07;;;;;;;2.60;1.60;;;;;;;;;;5038420;28;23152;-56
2022/06/15 04:39:33;;;;;;;3.33;2.00;;;;;;;;;;5032988;28;20025;-57
2022/06/15 04:41:59;;;;;;;2.38;1.60;;;;;;;;;;5043067;28;20036;-57
2022/06/15 04:44:25;;;;;;;2.38;1.40;;;;;;;;;;5042558;28;20021;-55
2022/06/15 04:46:51;;;;;;;2.65;1.77;;;;;;;;;;5034391;28;20044;-56
2022/06/15 04:49:17;;;;;;;3.03;1.73;;;;;;;;;;5039919;28;20103;-55
2022/06/15 04:51:43;;;;;;;2.17;1.80;;;;;;;;;;5038476;28;20026;-53
2022/06/15 04:54:10;;;;;;;2.67;1.75;;;;;;;;;;5033849;28;20021;-52
2022/06/15 04:56:37;;;;;;;1.88;1.40;;;;;;;;;;5043724;28;20111;-54
2022/06/15 04:59:04;;;;;;;2.95;1.90;;;;;;;;;;5036072;28;20095;-58
2022/06/15 05:01:30;;;;;;;2.42;1.63;;;;;;;;;;5044443;28;20549;-55
2022/06/15 05:03:56;;;;;;;3.92;1.90;;;;;;;;;;5044949;28;20393;-55
2022/06/15 05:06:22;;;;;;;3.10;1.70;;;;;;;;;;5034679;28;20025;-56
2022/06/15 05:08:48;;;;;;;3.70;2.35;;;;;;;;;;5036105;28;20052;-55
2022/06/15 05:11:14;;;;;;;3.88;2.40;;;;;;;;;;5040798;28;20040;-57
2022/06/15 05:13:40;;;;;;;5.78;3.00;;;;;;;;;;5046839;28;20033;-56
2022/06/15 05:16:06;;;;;;;5.15;2.63;;;;;;;;;;5044261;28;20506;-56
2022/06/15 05:18:32;;;;;;;4.32;2.40;;;;;;;;;;5043192;28;20055;-56
2022/06/15 05:21:00;;;;;;;3.33;2.08;;;;;;;;;;5037233;28;20032;-56
2022/06/15 05:23:26;;;;;;;6.70;2.65;;;;;;;;;;5044982;28;20541;-56
2022/06/15 05:25:52;;;;;;;4.10;2.42;;;;;;;;;;5043045;28;20029;-56
2022/06/15 05:28:18;;;;;;;4.35;2.80;;;;;;;;;;5042280;28;20078;-55
2022/06/15 05:30:44;;;;;;;5.90;2.65;;;;;;;;;;5041984;28;20036;-54
2022/06/15 05:33:10;;;;;;;4.03;2.28;;;;;;;;;;5046713;28;20072;-56
2022/06/15 05:35:36;;;;;;;3.90;2.55;;;;;;;;;;5046906;28;20086;-55
2022/06/15 05:38:02;;;;;;;6.25;2.78;;;;;;;;;;5045669;28;20028;-54
2022/06/15 05:40:28;;;;;;;5.93;3.53;;;;;;;;;;5053130;28;20021;-55
2022/06/15 05:42:54;;;;;;;5.25;2.45;;;;;;;;;;5053267;28;20025;-56
2022/06/15 05:45:20;;;;;;;4.70;2.65;;;;;;;;;;5051933;28;20207;-56
2022/06/15 05:47:46;;;;;;;3.60;2.17;;;;;;;;;;5049038;28;20136;-55
2022/06/15 05:50:13;;;;;;;3.53;2.35;;;;;;;;;;5045920;28;20056;-56
2022/06/15 05:52:39;;;;;;;4.05;2.08;;;;;;;;;;5053843;28;20040;-56
2022/06/15 05:55:06;;;;;;;7.05;2.22;;;;;;;;;;5052604;28;20029;-56
2022/06/15 05:57:32;;;;;;;4.88;2.13;;;;;;;;;;5052935;28;20057;-56
2022/06/15 05:59:58;;;;;;;9.40;2.60;;;;;;;;;;5053087;28;20053;-56
2022/06/15 06:02:25;;;;;;;5.75;2.00;;;;;;;;;;5051707;28;20585;-56
2022/06/15 06:04:51;;;;;;;5.15;2.03;;;;;;;;;;5052696;28;20032;-56
2022/06/15 06:07:18;;;;;;;4.60;2.17;;;;;;;;;;5052165;28;20051;-57
2022/06/15 06:09:44;;;;;;;4.40;2.08;;;;;;;;;;5053240;28;20029;-56
2022/06/15 06:12:10;;;;;;;4.65;2.40;;;;;;;;;;5051126;28;20374;-55
2022/06/15 06:14:38;;;;;;;5.30;2.25;;;;;;;;;;5052676;28;20861;-55
2022/06/15 06:17:04;;;;;;;3.40;1.98;;;;;;;;;;5052125;28;20033;-56
2022/06/15 06:19:30;;;;;;;3.17;1.98;;;;;;;;;;5052781;28;20071;-55
2022/06/15 06:21:56;;;;;;;4.97;2.22;;;;;;;;;;5052746;28;20111;-56
2022/06/15 06:24:22;;;;;;;7.82;2.08;;;;;;;;;;5051478;28;20020;-56
2022/06/15 06:26:48;;;;;;;4.22;2.42;;;;;;;;;;5052115;28;20025;-56
2022/06/15 06:29:15;;;;;;;5.13;2.13;;;;;;;;;;5051433;28;20056;-56
2022/06/15 06:31:41;;;;;;;5.53;2.40;;;;;;;;;;5051660;28;20033;-55
2022/06/15 06:34:07;;;;;;;6.25;2.20;;;;;;;;;;5040187;28;20557;-55
2022/06/15 06:36:37;;;;;;;3.15;1.88;;;;;;;;;;5051034;28;20501;-55
2022/06/15 06:39:05;;;;;;;3.03;1.92;;;;;;;;;;5035497;28;20033;-55
2022/06/15 06:41:31;;;;;;;4.65;2.08;;;;;;;;;;5054134;28;20032;-54
2022/06/15 06:43:59;;;;;;;3.20;1.95;;;;;;;;;;5049008;28;20033;-54
2022/06/15 06:46:26;;;;;;;23.90;2.45;;;;;;;;;;5050836;28;20482;-55
2022/06/15 06:48:52;;;;;;;2.95;1.95;;;;;;;;;;5063719;28;20060;-54
2022/06/15 06:51:18;;;;;;;3.90;1.63;;;;;;;;;;5060078;28;20025;-53
2022/06/15 06:53:44;;;;;;;4.25;1.88;;;;;;;;;;5054238;28;20390;-53
2022/06/15 06:56:11;;;;;;;4.07;2.42;;;;;;;;;;5050703;28;20021;-54
2022/06/15 06:58:37;;;;;;;6.68;2.55;;;;;;;;;;5059397;28;20035;-54
2022/06/15 07:01:03;;;;;;;4.40;2.53;;;;;;;;;;5053198;28;20021;-54
2022/06/15 07:03:29;;;;;;;3.53;2.13;;;;;;;;;;5056849;28;20021;-54
2022/06/15 07:05:59;;;;;;;2.03;1.63;;;;;;;;;;5069332;28;20397;-54
2022/06/15 07:08:25;;;;;;;6.07;1.88;;;;;;;;;;5059239;28;20029;-53
2022/06/15 07:10:52;;;;;;;3.65;2.10;;;;;;;;;;5057195;28;20029;-51
2022/06/15 07:13:18;;;;;;;4.60;1.95;;;;;;;;;;5055665;28;20070;-56
2022/06/15 07:15:43;;;;;;;4.30;1.60;;;;;;;;;;5065397;28;20067;-55
2022/06/15 07:18:09;;;;;;;4.32;1.88;;;;;;;;;;5056925;28;20497;-56
2022/06/15 07:20:35;;;;;;;2.80;1.67;;;;;;;;;;5054745;28;20024;-56
2022/06/15 07:23:02;;;;;;;3.58;1.63;;;;;;;;;;5066044;28;20017;-55
2022/06/15 07:25:28;;;;;;;2.75;1.80;;;;;;;;;;5063283;28;20023;-56
2022/06/15 07:27:54;;;;;;;3.00;1.63;;;;;;;;;;5055273;28;20033;-56
2022/06/15 07:30:22;;;;;;;3.28;1.85;;;;;;;;;;5057449;28;20033;-56
2022/06/15 07:32:48;;;;;;;2.92;1.70;;;;;;;;;;5059261;28;20025;-55
2022/06/15 07:35:21;;;;;;;3.42;1.77;;;;;;;;;;5046333;28;20125;-56
2022/06/15 07:37:47;;;;;;;3.20;2.03;;;;;;;;;;5052057;28;20032;-56
2022/06/15 07:40:13;;;;;;;4.75;1.77;;;;;;;;;;5062224;28;20052;-56
2022/06/15 07:42:39;;;;;;;3.67;1.75;;;;;;;;;;5054971;28;20025;-57
2022/06/15 07:45:06;;;;;;;5.22;1.50;;;;;;;;;;5052951;28;20051;-56
2022/06/15 07:50:16;;;;;;;5.05;1.67;;;;;;;;;;5056865;28;20154;-57
2022/06/15 07:52:44;;;;;;;3.35;1.70;;;;;;;;;;5057618;28;20448;-56
2022/06/15 07:55:11;;;;;;;2.63;1.63;;;;;;;;;;5053168;28;20068;-56
2022/06/15 07:57:37;;;;;;;7.35;1.88;;;;;;;;;;5053596;28;20147;-56
2022/06/15 08:00:04;;;;;;;2.88;1.58;;;;;;;;;;5061646;28;20055;-55
2022/06/15 08:02:30;;;;;;;2.70;1.60;;;;;;;;;;5060207;28;20025;-56
2022/06/15 08:04:56;;;;;;;1.70;1.40;;;;;;;;;;5058130;28;20522;-56
2022/06/15 08:07:22;;;;;;;4.18;1.85;;;;;;;;;;5052875;28;20040;-56
2022/06/15 08:09:49;;;;;;;2.92;1.60;;;;;;;;;;5059819;28;20029;-56
2022/06/15 08:12:16;;;;;;;2.72;1.63;;;;;;;;;;5060467;28;20100;-57
2022/06/15 08:14:49;;;;;;;2.78;1.75;;;;;;;;;;5051050;28;20025;-57
2022/06/15 08:17:26;;;;;;;3.10;1.70;;;;;;;;;;5051066;28;20024;-57
2022/06/15 08:19:56;;;;;;;2.20;1.60;;;;;;;;;;5058728;28;20104;-57
2022/06/15 08:22:22;;;;;;;3.33;1.80;;;;;;;;;;5051893;28;20024;-57
2022/06/15 08:24:49;;;;;;;3.47;1.85;;;;;;;;;;5054933;28;20148;-57
2022/06/15 08:27:17;;;;;;;1.73;1.25;;;;;;;;;;5053238;28;20374;-57
2022/06/15 08:29:43;;;;;;;4.03;1.67;;;;;;;;;;5065590;28;20082;-56
2022/06/15 08:32:10;;;;;;;2.50;1.70;;;;;;;;;;5054953;28;20052;-57
2022/06/15 08:34:37;;;;;;;2.67;1.48;;;;;;;;;;5052905;28;20021;-57
2022/06/15 08:37:07;;;;;;;2.90;1.83;;;;;;;;;;5061745;28;20031;-57
2022/06/15 08:39:33;;;;;;;2.40;1.63;;;;;;;;;;5063987;28;20487;-56
2022/06/15 08:42:11;;;;;;;4.43;1.75;;;;;;;;;;5057917;28;20029;-57
2022/06/15 08:44:45;;;;;;;2.35;1.88;;;;;;;;;;5042848;28;20029;-56
2022/06/15 08:47:18;;;;;;;3.83;2.10;;;;;;;;;;5067588;28;20036;-57
2022/06/15 08:49:58;;;;;;;3.20;1.58;;;;;;;;;;5057115;28;20471;-56
2022/06/15 08:52:34;;;;;;;2.55;1.85;;;;;;;;;;5049437;28;20033;-57
2022/06/15 08:55:07;;;;;;;2.75;1.35;;;;;;;;;;5065267;28;20021;-56
2022/06/15 08:57:43;;;;;;;2.40;1.50;;;;;;;;;;5058079;28;20025;-57
2022/06/15 09:00:14;;;;;;;3.88;1.63;;;;;;;;;;5065031;28;20012;-57
2022/06/15 09:02:55;;;;;;;1.92;1.35;;;;;;;;;;5065706;28;20048;-57
2022/06/15 09:05:40;;;;;;;1.77;1.27;;;;;;;;;;5051943;28;20035;-57
2022/06/15 09:08:24;;;;;;;2.45;1.83;;;;;;;;;;5054637;28;20040;-57
2022/06/15 09:10:51;;;;;;;4.75;1.67;;;;;;;;;;5065928;28;20151;-57
2022/06/15 09:13:20;;;;;;;2.22;1.45;;;;;;;;;;5064568;28;20095;-57
2022/06/15 09:16:04;;;;;;;4.60;1.88;;;;;;;;;;5043794;28;20417;-57
2022/06/15 09:18:32;;;;;;;3.80;1.73;;;;;;;;;;5065197;28;20140;-57
2022/06/15 09:21:04;;;;;;;2.20;1.63;;;;;;;;;;5060358;28;20502;-57
2022/06/15 09:23:39;;;;;;;2.50;1.40;;;;;;;;;;5059290;28;20859;-56
2022/06/15 09:26:35;;;;;;;3.85;2.10;;;;;;;;;;5064767;28;20024;-57
2022/06/15 09:29:11;;;;;;;2.50;1.80;;;;;;;;;;5060382;28;20162;-57
2022/06/15 09:31:43;;;;;;;2.88;1.88;;;;;;;;;;5059980;28;20040;-57
2022/06/15 09:34:10;;;;;;;2.30;1.70;;;;;;;;;;5053670;28;20021;-57
2022/06/15 09:36:43;;;;;;;4.80;1.80;;;;;;;;;;5054576;28;20406;-55
2022/06/15 09:39:09;;;;;;;3.30;2.08;;;;;;;;;;5051285;28;20489;-57
2022/06/15 09:41:35;;;;;;;3.65;1.70;;;;;;;;;;5055687;28;20029;-57
2022/06/15 09:44:07;;;;;;;3.72;1.83;;;;;;;;;;5055007;28;20538;-57
2022/06/15 09:46:53;;;;;;;2.67;1.70;;;;;;;;;;5060290;28;20079;-57
2022/06/15 09:49:38;;;;;;;5.30;1.80;;;;;;;;;;5054287;28;20124;-57
2022/06/15 09:52:10;;;;;;;2.83;1.73;;;;;;;;;;5054901;28;20040;-57
2022/06/15 09:54:56;;;;;;;3.15;1.90;;;;;;;;;;5054821;28;20026;-57
2022/06/15 09:57:23;;;;;;;4.07;1.70;;;;;;;;;;5051242;28;20024;-57
2022/06/15 09:59:49;;;;;;;2.47;1.77;;;;;;;;;;5054495;28;20021;-57
2022/06/15 10:02:30;;;;;;;2.28;1.70;;;;;;;;;;5058650;28;20025;-57
2022/06/15 10:04:57;;;;;;;3.47;1.90;;;;;;;;;;5061219;28;20098;-56
2022/06/15 10:07:28;;;;;;;2.85;1.85;;;;;;;;;;5051204;28;20036;-57
2022/06/15 10:09:56;;;;;;;2.97;1.65;;;;;;;;;;5061485;28;20037;-56
2022/06/15 10:15:14;;;;;;;3.58;2.13;;;;;;;;;;5054000;28;20036;-56
2022/06/15 10:17:41;;;;;;;3.20;2.00;;;;;;;;;;5060396;28;20049;-56
2022/06/15 10:20:19;;;;;;;2.97;1.73;;;;;;;;;;5065106;28;20033;-56
2022/06/15 10:22:45;;;;;;;2.55;1.55;;;;;;;;;;5056264;28;20370;-56
2022/06/15 10:25:17;;;;;;;4.28;2.00;;;;;;;;;;5057080;28;20024;-56
2022/06/15 10:27:43;;;;;;;2.95;2.10;;;;;;;;;;5068465;28;20078;-57
2022/06/15 10:30:15;;;;;;;2.22;1.63;;;;;;;;;;5058827;28;20057;-56
2022/06/15 10:33:04;;;;;;;2.80;1.70;;;;;;;;;;5053862;28;20068;-57
2022/06/15 10:35:32;;;;;;;2.38;1.50;;;;;;;;;;5039384;28;20037;-57
2022/06/15 10:38:04;;;;;;;2.67;1.52;;;;;;;;;;5059540;28;20130;-57
2022/06/15 10:40:34;;;;;;;2.13;1.50;;;;;;;;;;5055481;28;20675;-56
2022/06/15 10:43:04;;;;;;;3.80;1.75;;;;;;;;;;5055502;28;20071;-57
2022/06/15 10:45:33;;;;;;;2.67;1.60;;;;;;;;;;5056805;28;20580;-57
2022/06/15 10:48:01;;;;;;;3.88;1.67;;;;;;;;;;5062528;28;20072;-57
2022/06/15 10:50:33;;;;;;;2.25;1.80;;;;;;;;;;5055204;28;20112;-57
2022/06/15 10:53:01;;;;;;;5.88;2.25;;;;;;;;;;5054306;28;20082;-57
2022/06/15 11:04:03;;;;;;;4.60;2.10;;;;;;;;;;5064611;28;20028;-57
2022/06/15 11:06:36;;;;;;;3.15;1.77;;;;;;;;;;5057342;28;20227;-58
2022/06/15 11:09:03;;;;;;;2.63;2.08;;;;;;;;;;5041391;28;20068;-58
2022/06/15 11:11:29;;;;;;;2.83;1.90;;;;;;;;;;5065263;28;20147;-57
2022/06/15 11:13:57;;;;;;;2.67;1.60;;;;;;;;;;5058426;28;20378;-57
2022/06/15 11:19:22;;;;;;;3.47;1.73;;;;;;;;;;5045089;28;20032;-55
2022/06/15 11:21:51;;;;;;;2.53;1.63;;;;;;;;;;5061123;28;20025;-55
2022/06/15 11:24:17;;;;;;;3.22;1.83;;;;;;;;;;5053647;28;20072;-55
2022/06/15 11:26:53;;;;;;;2.25;1.60;;;;;;;;;;5064222;28;20032;-55
2022/06/15 11:29:37;;;;;;;3.17;2.00;;;;;;;;;;5046802;28;20503;-55
2022/06/15 11:32:08;;;;;;;3.03;2.05;;;;;;;;;;5046071;28;20103;-55
2022/06/15 11:34:37;;;;;;;1.83;1.67;;;;;;;;;;5051282;28;20099;-55
2022/06/15 11:37:10;;;;;;;3.45;1.92;;;;;;;;;;5063939;28;20024;-55
2022/06/15 11:39:36;;;;;;;4.55;1.88;;;;;;;;;;5051169;28;20098;-55
2022/06/15 11:42:03;;;;;;;3.75;2.00;;;;;;;;;;5053014;28;20025;-55
2022/06/15 11:44:33;;;;;;;2.80;1.90;;;;;;;;;;5051919;28;20029;-54
2022/06/15 11:47:02;;;;;;;5.30;1.90;;;;;;;;;;5053065;28;20474;-55
2022/06/15 11:49:34;;;;;;;2.78;1.40;;;;;;;;;;5052607;28;20024;-54
2022/06/15 11:52:03;;;;;;;3.13;1.65;;;;;;;;;;5057347;28;20033;-55
2022/06/15 11:54:38;;;;;;;2.78;1.63;;;;;;;;;;5053495;28;20043;-56
2022/06/15 11:57:19;;;;;;;2.80;1.98;;;;;;;;;;5054741;28;20025;-55
2022/06/15 12:00:04;;;;;;;3.63;1.80;;;;;;;;;;5057469;28;20028;-58
2022/06/15 12:02:36;;;;;;;3.80;1.70;;;;;;;;;;5054205;28;20044;-57
2022/06/15 12:05:16;;;;;;;3.28;1.80;;;;;;;;;;5045851;28;20029;-58
2022/06/15 12:07:49;;;;;;;2.53;1.70;;;;;;;;;;5044609;28;20040;-58
2022/06/15 12:10:30;;;;;;;4.60;1.70;;;;;;;;;;5038590;28;20029;-58
2022/06/15 12:13:00;;;;;;;4.33;1.73;;;;;;;;;;5050661;28;20075;-57
2022/06/15 12:15:35;;;;;;;4.88;1.95;;;;;;;;;;5050150;28;20032;-57
2022/06/15 12:18:13;;;;;;;2.67;1.67;;;;;;;;;;5051148;28;20087;-57
2022/06/15 12:20:55;;;;;;;4.63;1.70;;;;;;;;;;5048774;28;20487;-58
2022/06/15 12:23:21;;;;;;;3.75;1.35;;;;;;;;;;5051246;28;20032;-55
2022/06/15 12:26:02;;;;;;;2.95;1.55;;;;;;;;;;5049965;28;20025;-57
2022/06/15 12:28:48;;;;;;;3.45;1.67;;;;;;;;;;5051718;28;20028;-58
2022/06/15 12:31:14;;;;;;;2.88;1.80;;;;;;;;;;5038886;28;20032;-58
2022/06/15 12:33:52;;;;;;;2.80;1.73;;;;;;;;;;5055337;28;20024;-57
2022/06/15 12:36:28;;;;;;;2.38;1.52;;;;;;;;;;5063386;28;20504;-58
2022/06/15 12:38:58;;;;;;;2.33;1.75;;;;;;;;;;5049636;28;20051;-58
2022/06/15 12:44:15;;;;;;;3.80;2.00;;;;;;;;;;5043435;28;20033;-58
2022/06/15 12:46:44;;;;;;;3.67;1.90;;;;;;;;;;5057426;28;20049;-58
2022/06/15 12:49:13;;;;;;;4.90;1.88;;;;;;;;;;5051112;28;20069;-58
2022/06/15 12:51:57;;;;;;;2.10;1.45;;;;;;;;;;5049226;28;20033;-57
2022/06/15 12:54:26;;;;;;;3.70;1.55;;;;;;;;;;5057489;28;20066;-55
2022/06/15 12:57:11;;;;;;;2.03;1.60;;;;;;;;;;5044181;28;20083;-55
2022/06/15 12:59:50;;;;;;;3.15;1.95;;;;;;;;;;5052820;28;20124;-55
2022/06/15 13:02:22;;;;;;;3.28;1.80;;;;;;;;;;5065589;28;20024;-55
2022/06/15 13:04:57;;;;;;;4.93;1.58;;;;;;;;;;5038388;28;20028;-58
2022/06/15 13:07:28;;;;;;;2.78;1.50;;;;;;;;;;5055078;28;20056;-58
2022/06/15 13:10:12;;;;;;;2.42;1.50;;;;;;;;;;5067071;28;20063;-58
2022/06/15 13:12:54;;;;;;;1.92;1.40;;;;;;;;;;5060151;28;20029;-57
2022/06/15 13:15:23;;;;;;;2.85;1.60;;;;;;;;;;5051144;28;20029;-55
2022/06/15 13:18:06;;;;;;;2.13;1.60;;;;;;;;;;5066106;28;20421;-58
2022/06/15 13:20:32;;;;;;;2.20;1.70;;;;;;;;;;5057475;28;20071;-58
2022/06/15 13:22:58;;;;;;;2.58;1.60;;;;;;;;;;5041739;28;20056;-58
2022/06/15 13:25:24;;;;;;;4.13;1.73;;;;;;;;;;5043137;28;20036;-55
2022/06/15 13:28:02;;;;;;;3.67;1.70;;;;;;;;;;5063240;28;20026;-54
2022/06/15 13:30:32;;;;;;;2.67;1.65;;;;;;;;;;5056001;28;20013;-57
2022/06/15 13:33:11;;;;;;;1.70;1.40;;;;;;;;;;5054039;28;20355;-58
2022/06/15 13:35:40;;;;;;;2.60;1.88;;;;;;;;;;5061742;28;20033;-57
2022/06/15 13:38:27;;;;;;;3.53;1.67;;;;;;;;;;5058776;28;20037;-57
2022/06/15 13:40:53;;;;;;;3.42;1.60;;;;;;;;;;5044946;28;20045;-57
2022/06/15 13:43:23;;;;;;;2.72;1.55;;;;;;;;;;5052163;28;20068;-58
2022/06/15 13:45:50;;;;;;;3.30;1.40;;;;;;;;;;5052881;28;20052;-55
2022/06/15 13:48:20;;;;;;;2.55;1.52;;;;;;;;;;5045203;28;20402;-58
2022/06/15 13:50:51;;;;;;;2.25;1.33;;;;;;;;;;5050474;28;20036;-57
2022/06/15 13:53:29;;;;;;;1.75;1.60;;;;;;;;;;5059041;28;20021;-58
2022/06/15 13:55:55;;;;;;;3.35;1.30;;;;;;;;;;5050293;28;20053;-58
2022/06/15 13:58:39;;;;;;;2.90;1.60;;;;;;;;;;5059475;28;20052;-58
2022/06/15 14:01:06;;;;;;;2.67;1.88;;;;;;;;;;5062580;28;20550;-58
2022/06/15 14:03:45;;;;;;;2.45;1.40;;;;;;;;;;5055807;28;20040;-58
2022/06/15 14:06:15;;;;;;;2.30;1.60;;;;;;;;;;5058536;28;20025;-58
2022/06/15 14:08:50;;;;;;;4.40;1.90;;;;;;;;;;5047948;28;20032;-58
2022/06/15 14:11:34;;;;;;;2.33;1.48;;;;;;;;;;5051836;28;20041;-58
2022/06/15 14:14:09;;;;;;;3.10;1.50;;;;;;;;;;5052327;28;20087;-57
2022/06/15 14:16:46;;;;;;;3.55;1.83;;;;;;;;;;5056244;28;20036;-57
2022/06/15 14:19:31;;;;;;;4.05;1.58;;;;;;;;;;5059937;28;20446;-59
2022/06/15 14:22:03;;;;;;;1.95;1.50;;;;;;;;;;5051747;28;20057;-60
2022/06/15 14:24:29;;;;;;;;;;;;;;;;;;5057414;28;20021;-57
2022/06/15 14:26:58;;;;;;;5.40;1.88;;;;;;;;;;5052557;28;19909;-54
2022/06/15 14:29:24;;;;;;;3.70;1.75;;;;;;;;;;5057056;28;20048;-59
2022/06/15 14:31:54;;;;;;;3.72;1.77;;;;;;;;;;5058188;28;20114;-60
2022/06/15 14:34:22;;;;;;;2.28;1.60;;;;;;;;;;5064125;28;20037;-59
2022/06/15 14:37:10;;;;;;;2.22;1.58;;;;;;;;;;5058642;28;20017;-59
2022/06/15 14:39:51;;;;;;;2.75;1.40;;;;;;;;;;5045178;28;20025;-58
2022/06/15 14:42:19;;;;;;;2.88;1.77;;;;;;;;;;5046184;28;20029;-57
2022/06/15 14:44:45;;;;;;;3.28;2.00;;;;;;;;;;5041954;28;20095;-58
2022/06/15 14:47:13;;;;;;;3.75;1.75;;;;;;;;;;5052058;28;20028;-58
2022/06/15 14:49:43;;;;;;;3.17;1.30;;;;;;;;;;5038588;28;20048;-58
2022/06/15 14:52:33;;;;;;;5.70;1.60;;;;;;;;;;5045489;28;20029;-58
2022/06/15 14:55:07;;;;;;;2.50;1.52;;;;;;;;;;5037606;28;20075;-58
2022/06/15 14:57:35;;;;;;;2.97;1.50;;;;;;;;;;5051868;28;20029;-58
2022/06/15 15:00:04;;;;;;;4.53;1.67;;;;;;;;;;5032488;28;20143;-58
2022/06/15 15:02:38;;;;;;;2.40;1.30;;;;;;;;;;5051415;28;20021;-57
2022/06/15 15:05:04;;;;;;;2.03;1.60;;;;;;;;;;5052313;28;20025;-57
2022/06/15 15:10:29;;;;;;;3.25;1.77;;;;;;;;;;5038401;28;20036;-59
2022/06/15 15:12:55;;;;;;;2.60;2.00;;;;;;;;;;5056124;28;20024;-57
2022/06/15 15:15:22;;;;;;;4.82;1.67;;;;;;;;;;5051968;28;20025;-57
2022/06/15 15:17:59;;;;;;;3.15;1.50;;;;;;;;;;5052089;28;20546;-58
2022/06/15 15:20:41;;;;;;;1.83;1.30;;;;;;;;;;5051145;28;20056;-57
2022/06/15 15:23:09;;;;;;;3.38;1.48;;;;;;;;;;5052413;28;20104;-58
2022/06/15 15:25:36;;;;;;;1.88;1.40;;;;;;;;;;5051828;28;20047;-57